createdAt,value
2023-05-05T00:00:51.668Z,5.13
2023-05-05T00:01:53.844Z,4.82
2023-05-05T00:02:56.020Z,4.90
2023-05-05T00:03:58.293Z,4.70
2023-05-05T00:05:00.440Z,4.32
2023-05-05T00:06:02.885Z,5.07
2023-05-05T00:07:05.029Z,4.68
2023-05-05T00:08:07.228Z,4.25
2023-05-05T00:09:09.353Z,4.93
2023-05-05T00:10:11.545Z,4.60
2023-05-05T00:11:13.730Z,4.80
2023-05-05T00:12:15.892Z,5.05
2023-05-05T00:13:20.131Z,4.38
2023-05-05T00:14:22.249Z,4.72
2023-05-05T00:15:24.409Z,4.93
2023-05-05T00:16:27.006Z,4.68
2023-05-05T00:17:29.137Z,5.07
2023-05-05T00:18:31.522Z,5.10
2023-05-05T00:19:33.646Z,3.97
2023-05-05T00:20:35.893Z,4.75
2023-05-05T00:21:38.005Z,4.85
2023-05-05T00:22:40.092Z,4.63
2023-05-05T00:23:42.266Z,4.40
2023-05-05T00:24:44.351Z,4.90
2023-05-05T00:25:46.972Z,4.65
2023-05-05T00:26:49.097Z,5.05
2023-05-05T00:27:51.169Z,4.25
2023-05-05T00:28:53.320Z,4.68
2023-05-05T00:29:55.470Z,4.80
2023-05-05T00:30:57.610Z,4.55
2023-05-05T00:31:59.793Z,4.70
2023-05-05T00:33:02.055Z,4.72
2023-05-05T00:34:04.248Z,5.20
2023-05-05T00:35:07.007Z,4.07
2023-05-05T00:36:09.760Z,4.88
2023-05-05T00:37:12.330Z,4.97
2023-05-05T00:38:14.430Z,4.70
2023-05-05T00:39:16.551Z,4.93
2023-05-05T00:40:19.012Z,4.47
2023-05-05T00:41:21.082Z,4.28
2023-05-05T00:42:23.199Z,4.82
2023-05-05T00:43:25.324Z,4.40
2023-05-05T00:44:37.459Z,4.82
2023-05-05T00:45:42.848Z,5.20
2023-05-05T00:46:45.655Z,4.60
2023-05-05T00:47:49.885Z,5.03
2023-05-05T00:48:52.627Z,4.60
2023-05-05T00:49:54.802Z,4.95
2023-05-05T00:50:57.119Z,4.38
2023-05-05T00:51:59.722Z,4.70
2023-05-05T00:53:03.591Z,5.22
2023-05-05T00:54:05.993Z,5.28
2023-05-05T00:55:08.603Z,4.35
2023-05-05T00:56:12.906Z,4.82
2023-05-05T00:57:15.055Z,4.68
2023-05-05T00:58:17.548Z,4.82
2023-05-05T00:59:19.768Z,4.82
2023-05-05T01:00:22.112Z,4.82
2023-05-05T01:01:24.278Z,4.38
2023-05-05T01:02:26.734Z,5.05
2023-05-05T01:03:28.959Z,5.63
2023-05-05T01:04:31.269Z,5.05
2023-05-05T01:05:42.574Z,5.05
2023-05-05T01:07:03.954Z,4.38
2023-05-05T01:08:36.716Z,5.22
2023-05-05T01:10:18.042Z,4.05
2023-05-05T01:11:44.078Z,5.05
2023-05-05T01:12:55.130Z,4.50
2023-05-05T01:15:11.055Z,4.63
2023-05-05T01:16:18.928Z,4.95
2023-05-05T01:17:24.770Z,5.20
2023-05-05T01:18:40.748Z,5.20
2023-05-05T01:19:59.631Z,4.85
2023-05-05T01:21:10.647Z,5.70
2023-05-05T01:23:28.318Z,4.72
2023-05-05T01:24:45.721Z,5.47
2023-05-05T01:26:09.024Z,5.32
2023-05-05T01:27:27.951Z,4.22
2023-05-05T01:28:51.764Z,4.10
2023-05-05T01:31:38.894Z,4.68
2023-05-05T01:32:49.153Z,5.03
2023-05-05T01:33:59.156Z,5.35
2023-05-05T01:35:09.998Z,4.70
2023-05-05T01:36:22.737Z,5.05
2023-05-05T01:37:45.605Z,5.05
2023-05-05T01:38:49.096Z,5.00
2023-05-05T01:39:53.793Z,5.00
2023-05-05T01:42:06.834Z,5.00
2023-05-05T01:43:10.544Z,5.22
2023-05-05T01:44:14.848Z,5.03
2023-05-05T01:45:19.107Z,5.50
2023-05-05T01:46:24.004Z,4.95
2023-05-05T01:47:26.646Z,5.57
2023-05-05T01:48:30.049Z,5.15
2023-05-05T01:49:33.131Z,5.55
2023-05-05T01:50:36.928Z,5.30
2023-05-05T01:51:39.977Z,5.25
2023-05-05T01:52:42.522Z,5.00
2023-05-05T01:53:47.211Z,5.68
2023-05-05T01:55:52.441Z,5.40
2023-05-05T01:56:56.452Z,5.00
2023-05-05T01:57:58.876Z,5.55
2023-05-05T01:59:01.994Z,5.00
2023-05-05T02:00:04.772Z,5.45
2023-05-05T02:01:07.135Z,5.40
2023-05-05T02:02:10.770Z,5.25
2023-05-05T02:03:13.960Z,5.03
2023-05-05T02:04:18.032Z,5.30
2023-05-05T02:05:22.878Z,5.38
2023-05-05T02:06:26.978Z,5.55
2023-05-05T02:07:29.918Z,5.35
2023-05-05T02:08:32.911Z,5.55
2023-05-05T02:09:36.358Z,5.60
2023-05-05T02:10:40.978Z,5.22
2023-05-05T02:12:45.736Z,5.10
2023-05-05T02:13:49.483Z,5.30
2023-05-05T02:14:52.359Z,6.85
2023-05-05T02:15:54.952Z,5.30
2023-05-05T02:16:57.890Z,5.95
2023-05-05T02:18:00.609Z,5.60
2023-05-05T02:19:05.657Z,4.72
2023-05-05T02:20:10.822Z,5.72
2023-05-05T02:21:14.837Z,5.22
2023-05-05T02:22:17.017Z,5.20
2023-05-05T02:23:19.353Z,5.05
2023-05-05T02:24:21.574Z,5.68
2023-05-05T02:25:26.160Z,5.30
2023-05-05T02:26:30.391Z,4.65
2023-05-05T02:27:34.951Z,5.38
2023-05-05T02:28:48.883Z,5.30
2023-05-05T02:29:53.312Z,5.38
2023-05-05T02:30:59.835Z,5.28
2023-05-05T02:32:06.322Z,5.15
2023-05-05T02:33:10.787Z,5.18
2023-05-05T02:34:13.756Z,5.68
2023-05-05T02:35:19.137Z,5.60
2023-05-05T02:36:23.062Z,5.28
2023-05-05T02:37:27.786Z,5.75
2023-05-05T02:39:38.717Z,4.60
2023-05-05T02:40:42.593Z,5.43
2023-05-05T02:41:47.401Z,5.22
2023-05-05T02:42:53.572Z,5.28
2023-05-05T02:43:58.058Z,5.68
2023-05-05T02:45:04.194Z,5.05
2023-05-05T02:46:06.766Z,5.55
2023-05-05T02:47:09.141Z,5.13
2023-05-05T02:48:13.100Z,5.80
2023-05-05T02:49:15.627Z,4.80
2023-05-05T02:50:18.122Z,5.85
2023-05-05T02:51:20.287Z,5.78
2023-05-05T02:52:22.489Z,4.85
2023-05-05T02:53:25.836Z,5.65
2023-05-05T02:54:28.177Z,5.97
2023-05-05T02:55:37.938Z,5.47
2023-05-05T02:56:44.445Z,5.57
2023-05-05T02:58:06.896Z,6.32
2023-05-05T02:59:10.191Z,5.95
2023-05-05T03:00:28.412Z,5.57
2023-05-05T03:01:39.507Z,5.55
2023-05-05T03:04:04.953Z,5.82
2023-05-05T03:05:12.973Z,5.40
2023-05-05T03:06:17.738Z,5.72
2023-05-05T03:07:25.608Z,5.43
2023-05-05T03:08:43.094Z,5.82
2023-05-05T03:10:59.892Z,6.15
2023-05-05T03:12:04.713Z,6.03
2023-05-05T03:13:10.246Z,5.95
2023-05-05T03:14:13.939Z,6.32
2023-05-05T03:15:16.192Z,6.53
2023-05-05T03:16:18.700Z,5.95
2023-05-05T03:17:22.606Z,6.07
2023-05-05T03:18:25.387Z,6.20
2023-05-05T03:19:28.808Z,6.28
2023-05-05T03:20:31.240Z,5.30
2023-05-05T03:21:33.690Z,6.50
2023-05-05T03:22:37.780Z,6.60
2023-05-05T03:23:40.125Z,6.28
2023-05-05T03:24:42.346Z,7.00
2023-05-05T03:25:46.376Z,6.13
2023-05-05T03:26:49.691Z,6.40
2023-05-05T03:27:51.977Z,6.20
2023-05-05T03:28:54.143Z,6.70
2023-05-05T03:29:56.552Z,6.32
2023-05-05T03:30:58.812Z,6.55
2023-05-05T03:32:01.543Z,6.68
2023-05-05T03:33:03.956Z,6.75
2023-05-05T03:34:06.250Z,7.40
2023-05-05T03:35:08.702Z,6.80
2023-05-05T03:36:11.007Z,6.47
2023-05-05T03:37:13.141Z,6.75
2023-05-05T03:38:15.380Z,6.78
2023-05-05T03:39:18.832Z,6.60
2023-05-05T03:40:27.178Z,5.80
2023-05-05T03:41:34.966Z,7.05
2023-05-05T03:42:37.087Z,7.00
2023-05-05T03:43:39.444Z,7.55
2023-05-05T03:44:41.530Z,6.65
2023-05-05T03:45:43.665Z,7.60
2023-05-05T03:46:45.844Z,6.88
2023-05-05T03:47:48.077Z,6.95
2023-05-05T03:48:50.444Z,7.10
2023-05-05T03:49:52.496Z,7.32
2023-05-05T03:50:54.586Z,6.45
2023-05-05T03:51:56.700Z,7.82
2023-05-05T03:52:58.819Z,7.50
2023-05-05T03:54:01.057Z,6.72
2023-05-05T03:55:03.220Z,6.95
2023-05-05T03:56:05.598Z,6.68
2023-05-05T03:57:07.741Z,7.00
2023-05-05T03:58:09.863Z,7.68
2023-05-05T03:59:12.023Z,6.90
2023-05-05T04:00:15.214Z,7.05
2023-05-05T04:01:17.302Z,6.75
2023-05-05T04:02:19.543Z,6.82
2023-05-05T04:03:21.900Z,8.43
2023-05-05T04:04:24.172Z,7.53
2023-05-05T04:05:26.432Z,7.90
2023-05-05T04:06:28.614Z,7.85
2023-05-05T04:07:30.726Z,7.43
2023-05-05T04:08:32.844Z,7.55
2023-05-05T04:09:35.005Z,6.95
2023-05-05T04:10:37.078Z,7.28
2023-05-05T04:11:39.223Z,8.23
2023-05-05T04:12:41.437Z,7.50
2023-05-05T04:13:43.540Z,8.27
2023-05-05T04:14:45.696Z,8.20
2023-05-05T04:15:47.824Z,8.27
2023-05-05T04:16:49.965Z,7.57
2023-05-05T04:17:52.237Z,8.27
2023-05-05T04:18:55.333Z,7.22
2023-05-05T04:19:57.415Z,7.90
2023-05-05T04:20:59.531Z,7.95
2023-05-05T04:22:01.644Z,8.13
2023-05-05T04:23:03.761Z,7.30
2023-05-05T04:24:06.256Z,8.00
2023-05-05T04:25:08.348Z,8.57
2023-05-05T04:26:10.754Z,7.47
2023-05-05T04:27:12.827Z,8.10
2023-05-05T04:28:14.971Z,8.35
2023-05-05T04:29:17.477Z,8.38
2023-05-05T04:30:19.680Z,8.40
2023-05-05T04:31:21.818Z,8.30
2023-05-05T04:32:23.988Z,8.70
2023-05-05T04:33:26.201Z,9.02
2023-05-05T04:34:28.311Z,7.53
2023-05-05T04:35:30.713Z,7.72
2023-05-05T04:36:32.781Z,8.32
2023-05-05T04:37:34.876Z,8.27
2023-05-05T04:38:37.020Z,7.53
2023-05-05T04:39:39.165Z,8.80
2023-05-05T04:40:41.402Z,9.93
2023-05-05T04:41:43.529Z,10.80
2023-05-05T04:42:45.894Z,9.50
2023-05-05T04:43:47.980Z,9.75
2023-05-05T04:44:50.048Z,9.75
2023-05-05T04:45:55.802Z,9.52
2023-05-05T04:46:58.154Z,8.50
2023-05-05T04:48:00.281Z,9.68
2023-05-05T04:49:05.158Z,9.65
2023-05-05T04:50:08.182Z,10.07
2023-05-05T04:51:10.505Z,9.40
2023-05-05T04:52:13.601Z,9.63
2023-05-05T04:53:15.753Z,8.95
2023-05-05T04:54:17.928Z,9.00
2023-05-05T04:55:20.094Z,8.70
2023-05-05T04:56:22.182Z,8.98
2023-05-05T04:57:24.279Z,9.23
2023-05-05T04:58:26.733Z,8.65
2023-05-05T04:59:28.812Z,9.10
2023-05-05T05:00:31.089Z,8.95
2023-05-05T05:01:33.262Z,9.65
2023-05-05T05:02:35.929Z,8.35
2023-05-05T05:03:38.140Z,8.70
2023-05-05T05:04:40.721Z,9.00
2023-05-05T05:05:42.807Z,9.30
2023-05-05T05:06:46.082Z,9.48
2023-05-05T05:07:48.325Z,8.35
2023-05-05T05:08:50.526Z,9.15
2023-05-05T05:09:52.647Z,8.02
2023-05-05T05:10:54.755Z,7.85
2023-05-05T05:12:01.056Z,8.25
2023-05-05T05:13:04.453Z,8.13
2023-05-05T05:14:06.895Z,8.40
2023-05-05T05:15:09.769Z,8.57
2023-05-05T05:16:11.952Z,8.18
2023-05-05T05:17:14.211Z,7.70
2023-05-05T05:18:16.737Z,7.78
2023-05-05T05:19:18.946Z,8.45
2023-05-05T05:20:21.181Z,8.70
2023-05-05T05:21:23.288Z,8.23
2023-05-05T05:22:25.387Z,8.02
2023-05-05T05:23:27.540Z,7.60
2023-05-05T05:24:30.066Z,8.05
2023-05-05T05:25:32.199Z,7.63
2023-05-05T05:26:34.337Z,7.00
2023-05-05T05:27:36.616Z,7.22
2023-05-05T05:28:38.754Z,7.38
2023-05-05T05:29:40.830Z,8.02
2023-05-05T05:30:43.039Z,8.65
2023-05-05T05:31:45.149Z,8.57
2023-05-05T05:32:47.349Z,7.25
2023-05-05T05:33:49.470Z,6.97
2023-05-05T05:34:51.709Z,7.97
2023-05-05T05:35:53.839Z,7.68
2023-05-05T05:36:55.966Z,7.80
2023-05-05T05:37:58.123Z,7.03
2023-05-05T05:39:00.231Z,6.82
2023-05-05T05:40:02.307Z,7.05
2023-05-05T05:41:09.962Z,7.65
2023-05-05T05:42:12.026Z,6.80
2023-05-05T05:43:14.181Z,7.18
2023-05-05T05:44:16.274Z,8.10
2023-05-05T05:45:18.365Z,7.63
2023-05-05T05:46:21.199Z,7.03
2023-05-05T05:47:23.871Z,6.97
2023-05-05T05:48:28.575Z,6.60
2023-05-05T05:50:32.544Z,7.05
2023-05-05T05:51:34.648Z,6.82
2023-05-05T05:52:36.959Z,6.82
2023-05-05T05:53:39.152Z,6.35
2023-05-05T05:54:41.292Z,7.00
2023-05-05T05:55:46.199Z,7.10
2023-05-05T05:56:48.298Z,6.82
2023-05-05T05:57:50.366Z,7.45
2023-05-05T05:58:52.645Z,6.85
2023-05-05T05:59:55.069Z,6.63
2023-05-05T06:00:59.179Z,6.72
2023-05-05T06:02:01.714Z,6.00
2023-05-05T06:03:04.041Z,6.55
2023-05-05T06:04:06.303Z,5.70
2023-05-05T06:05:08.960Z,6.10
2023-05-05T06:06:11.076Z,6.32
2023-05-05T06:07:13.338Z,6.43
2023-05-05T06:08:15.421Z,5.82
2023-05-05T06:09:17.545Z,5.40
2023-05-05T06:10:29.862Z,6.25
2023-05-05T06:11:33.265Z,5.57
2023-05-05T06:12:35.403Z,5.63
2023-05-05T06:13:37.646Z,5.28
2023-05-05T06:14:39.749Z,6.03
2023-05-05T06:15:41.897Z,5.60
2023-05-05T06:16:44.340Z,5.07
2023-05-05T06:17:46.592Z,5.32
2023-05-05T06:18:48.813Z,5.38
2023-05-05T06:19:51.101Z,5.70
2023-05-05T06:20:54.071Z,6.07
2023-05-05T06:21:56.292Z,7.07
2023-05-05T06:22:58.468Z,13.77
2023-05-05T06:24:00.614Z,7.72
2023-05-05T06:25:02.789Z,5.60
2023-05-05T06:26:04.891Z,5.80
2023-05-05T06:27:06.964Z,5.72
2023-05-05T06:28:09.145Z,5.97
2023-05-05T06:29:12.418Z,6.03
2023-05-05T06:30:14.861Z,6.13
2023-05-05T06:31:17.496Z,5.63
2023-05-05T06:32:20.427Z,6.18
2023-05-05T06:33:22.534Z,8.15
2023-05-05T06:34:24.711Z,6.80
2023-05-05T06:35:26.894Z,12.77
2023-05-05T06:36:29.052Z,5.97
2023-05-05T06:37:31.161Z,5.65
2023-05-05T06:38:33.387Z,5.60
2023-05-05T06:39:35.512Z,5.78
2023-05-05T06:40:37.581Z,6.35
2023-05-05T06:41:39.643Z,6.53
2023-05-05T06:42:41.791Z,6.45
2023-05-05T06:43:45.225Z,5.60
2023-05-05T06:44:47.279Z,5.80
2023-05-05T06:45:49.527Z,6.05
2023-05-05T06:46:51.771Z,5.60
2023-05-05T06:47:53.981Z,5.65
2023-05-05T06:48:56.127Z,5.38
2023-05-05T06:49:58.210Z,5.50
2023-05-05T06:51:00.352Z,5.95
2023-05-05T06:52:03.116Z,5.55
2023-05-05T06:53:05.189Z,7.68
2023-05-05T06:54:07.677Z,6.10
2023-05-05T06:55:09.972Z,6.45
2023-05-05T06:56:12.085Z,5.13
2023-05-05T06:57:14.195Z,6.10
2023-05-05T06:58:16.388Z,5.22
2023-05-05T06:59:18.541Z,5.57
2023-05-05T07:00:22.167Z,5.55
2023-05-05T07:01:24.438Z,7.90
2023-05-05T07:02:27.064Z,5.50
2023-05-05T07:03:29.370Z,5.75
2023-05-05T07:04:31.635Z,5.57
2023-05-05T07:05:33.753Z,5.88
2023-05-05T07:06:35.911Z,4.68
2023-05-05T07:07:38.895Z,5.13
2023-05-05T07:08:41.101Z,5.55
2023-05-05T07:09:45.025Z,6.35
2023-05-05T07:10:47.381Z,5.43
2023-05-05T07:11:49.566Z,5.90
2023-05-05T07:12:52.567Z,6.55
2023-05-05T07:13:54.885Z,5.43
2023-05-05T07:14:57.367Z,4.80
2023-05-05T07:15:59.891Z,5.00
2023-05-05T07:17:01.994Z,5.38
2023-05-05T07:18:04.325Z,5.35
2023-05-05T07:19:06.602Z,5.47
2023-05-05T07:20:09.720Z,5.15
2023-05-05T07:21:12.214Z,4.90
2023-05-05T07:22:14.311Z,6.10
2023-05-05T07:23:16.418Z,5.22
2023-05-05T07:24:18.525Z,5.18
2023-05-05T07:25:21.232Z,6.82
2023-05-05T07:26:23.544Z,5.57
2023-05-05T07:27:25.977Z,5.22
2023-05-05T07:28:28.100Z,5.70
2023-05-05T07:29:30.212Z,6.10
2023-05-05T07:30:32.278Z,5.88
2023-05-05T07:31:34.472Z,6.35
2023-05-05T07:32:36.667Z,5.43
2023-05-05T07:33:38.850Z,5.55
2023-05-05T07:34:41.014Z,5.75
2023-05-05T07:35:43.135Z,5.80
2023-05-05T07:36:45.327Z,6.13
2023-05-05T07:37:47.880Z,6.10
2023-05-05T07:38:50.016Z,5.55
2023-05-05T07:39:52.206Z,5.90
2023-05-05T07:40:54.342Z,5.43
2023-05-05T07:41:56.467Z,6.40
2023-05-05T07:42:58.557Z,5.53
2023-05-05T07:44:01.242Z,5.20
2023-05-05T07:45:04.762Z,6.03
2023-05-05T07:46:07.247Z,5.78
2023-05-05T07:47:09.399Z,6.50
2023-05-05T07:48:11.603Z,5.78
2023-05-05T07:49:13.765Z,5.68
2023-05-05T07:50:16.286Z,6.35
2023-05-05T07:51:18.411Z,5.72
2023-05-05T07:52:30.070Z,6.13
2023-05-05T07:53:41.507Z,5.85
2023-05-05T07:54:45.252Z,6.28
2023-05-05T07:55:47.415Z,6.45
2023-05-05T07:56:49.583Z,6.80
2023-05-05T07:57:51.765Z,5.63
2023-05-05T07:58:53.938Z,5.95
2023-05-05T07:59:56.019Z,6.15
2023-05-05T08:00:58.121Z,7.78
2023-05-05T08:02:00.233Z,6.05
2023-05-05T08:03:02.493Z,5.32
2023-05-05T08:04:05.385Z,5.47
2023-05-05T08:05:08.229Z,5.45
2023-05-05T08:06:10.800Z,5.50
2023-05-05T08:07:12.931Z,5.07
2023-05-05T08:08:15.462Z,5.82
2023-05-05T08:09:17.679Z,7.95
2023-05-05T08:10:22.315Z,6.18
2023-05-05T08:11:27.175Z,5.72
2023-05-05T08:12:30.526Z,6.03
2023-05-05T08:13:32.710Z,6.32
2023-05-05T08:14:34.920Z,5.25
2023-05-05T08:15:37.157Z,5.75
2023-05-05T08:16:39.346Z,5.65
2023-05-05T08:17:49.176Z,5.93
2023-05-05T08:18:52.218Z,4.82
2023-05-05T08:19:54.504Z,5.85
2023-05-05T08:20:56.616Z,5.63
2023-05-05T08:22:01.054Z,5.60
2023-05-05T08:23:03.600Z,5.82
2023-05-05T08:24:05.752Z,5.88
2023-05-05T08:25:08.512Z,5.90
2023-05-05T08:26:10.780Z,5.40
2023-05-05T08:27:14.066Z,5.80
2023-05-05T08:28:16.232Z,5.95
2023-05-05T08:29:18.374Z,5.20
2023-05-05T08:30:21.460Z,5.35
2023-05-05T08:31:23.624Z,5.90
2023-05-05T08:32:27.296Z,6.32
2023-05-05T08:33:31.391Z,5.57
2023-05-05T08:34:33.550Z,6.72
2023-05-05T08:35:35.709Z,6.93
2023-05-05T08:36:37.908Z,9.15
2023-05-05T08:37:40.086Z,6.03
2023-05-05T08:38:42.168Z,7.00
2023-05-05T08:39:44.736Z,6.75
2023-05-05T08:40:46.954Z,6.63
2023-05-05T08:41:49.188Z,6.05
2023-05-05T08:42:51.300Z,6.28
2023-05-05T08:43:53.504Z,6.72
2023-05-05T08:44:57.269Z,7.00
2023-05-05T08:46:00.534Z,5.72
2023-05-05T08:47:02.854Z,5.70
2023-05-05T08:48:05.591Z,6.00
2023-05-05T08:49:11.257Z,5.63
2023-05-05T08:50:13.701Z,6.65
2023-05-05T08:51:19.937Z,5.60
2023-05-05T08:52:24.207Z,6.10
2023-05-05T08:53:41.449Z,5.50
2023-05-05T08:54:48.138Z,5.22
2023-05-05T08:55:55.482Z,5.95
2023-05-05T08:56:59.752Z,5.82
2023-05-05T08:58:04.223Z,5.63
2023-05-05T08:59:06.667Z,5.70
2023-05-05T09:00:10.738Z,6.78
2023-05-05T09:01:13.272Z,5.95
2023-05-05T09:02:16.419Z,6.57
2023-05-05T09:03:18.764Z,6.10
2023-05-05T09:04:21.130Z,6.00
2023-05-05T09:05:23.452Z,5.60
2023-05-05T09:06:27.436Z,6.07
2023-05-05T09:07:30.099Z,6.40
2023-05-05T09:08:33.203Z,5.70
2023-05-05T09:09:35.873Z,5.88
2023-05-05T09:10:41.111Z,6.60
2023-05-05T09:11:43.989Z,5.13
2023-05-05T09:12:46.252Z,5.57
2023-05-05T09:13:48.451Z,6.25
2023-05-05T09:16:09.971Z,5.93
2023-05-05T09:17:25.436Z,6.05
2023-05-05T09:18:27.681Z,5.72
2023-05-05T09:19:29.813Z,5.40
2023-05-05T09:20:36.078Z,5.10
2023-05-05T09:21:46.798Z,5.75
2023-05-05T09:22:48.970Z,5.15
2023-05-05T09:24:18.716Z,5.35
2023-05-05T09:26:23.291Z,5.18
2023-05-05T09:27:25.637Z,4.53
2023-05-05T09:28:28.011Z,5.05
2023-05-05T09:29:30.147Z,5.25
2023-05-05T09:30:32.509Z,5.38
2023-05-05T09:31:35.916Z,4.50
2023-05-05T09:32:46.066Z,5.85
2023-05-05T09:33:48.538Z,5.95
2023-05-05T09:35:01.077Z,5.03
2023-05-05T09:36:03.473Z,4.88
2023-05-05T09:37:06.273Z,5.65
2023-05-05T09:38:12.118Z,5.90
2023-05-05T09:39:16.906Z,5.88
2023-05-05T09:40:20.586Z,5.72
2023-05-05T09:41:39.220Z,6.20
2023-05-05T09:42:41.502Z,9.93
2023-05-05T09:43:52.502Z,5.95
2023-05-05T09:44:54.853Z,6.05
2023-05-05T09:46:07.719Z,5.75
2023-05-05T09:47:22.137Z,5.38
2023-05-05T09:48:30.647Z,4.82
2023-05-05T09:49:32.860Z,5.10
2023-05-05T09:50:44.748Z,5.13
2023-05-05T09:51:47.582Z,8.30
2023-05-05T09:52:57.365Z,5.10
2023-05-05T09:53:59.541Z,4.88
2023-05-05T09:55:01.926Z,5.50
2023-05-05T09:56:04.312Z,4.70
2023-05-05T09:57:06.714Z,4.80
2023-05-05T09:58:23.911Z,6.43
2023-05-05T09:59:26.188Z,5.53
2023-05-05T10:00:46.670Z,4.32
2023-05-05T10:01:50.087Z,5.55
2023-05-05T10:02:52.337Z,6.82
2023-05-05T10:03:54.615Z,6.40
2023-05-05T10:05:10.262Z,6.03
2023-05-05T10:06:12.387Z,5.63
2023-05-05T10:07:23.314Z,5.55
2023-05-05T10:08:27.673Z,9.50
2023-05-05T10:09:31.692Z,9.18
2023-05-05T10:10:33.822Z,6.80
2023-05-05T10:11:36.088Z,6.40
2023-05-05T10:12:38.452Z,6.32
2023-05-05T10:13:42.131Z,6.45
2023-05-05T10:14:44.344Z,6.80
2023-05-05T10:15:48.569Z,6.18
2023-05-05T10:16:52.328Z,5.75
2023-05-05T10:18:06.964Z,5.03
2023-05-05T10:19:14.300Z,5.47
2023-05-05T10:20:16.549Z,5.88
2023-05-05T10:21:21.452Z,5.60
2023-05-05T10:22:24.182Z,5.32
2023-05-05T10:23:38.698Z,6.35
2023-05-05T10:24:44.788Z,4.90
2023-05-05T10:26:01.827Z,5.60
2023-05-05T10:28:07.097Z,5.07
2023-05-05T10:29:16.772Z,5.90
2023-05-05T10:30:30.155Z,4.90
2023-05-05T10:31:52.908Z,4.90
2023-05-05T10:33:18.285Z,5.53
2023-05-05T10:34:36.247Z,4.82
2023-05-05T10:35:40.847Z,4.88
2023-05-05T10:36:43.025Z,5.35
2023-05-05T10:37:45.777Z,5.65
2023-05-05T10:38:49.375Z,6.05
2023-05-05T10:39:52.605Z,4.95
2023-05-05T10:40:55.286Z,4.82
2023-05-05T10:42:01.831Z,5.13
2023-05-05T10:43:04.407Z,5.00
2023-05-05T10:44:06.852Z,4.93
2023-05-05T10:45:09.570Z,7.20
2023-05-05T10:46:12.019Z,6.38
2023-05-05T10:47:15.166Z,8.30
2023-05-05T10:48:30.285Z,6.88
2023-05-05T10:50:07.588Z,4.90
2023-05-05T10:51:38.564Z,5.22
2023-05-05T10:52:51.394Z,5.38
2023-05-05T10:54:01.864Z,6.47
2023-05-05T10:55:19.436Z,6.43
2023-05-05T10:56:28.358Z,5.53
2023-05-05T10:57:32.479Z,6.45
2023-05-05T10:58:51.303Z,6.57
2023-05-05T10:59:58.081Z,6.13
2023-05-05T11:01:00.310Z,6.25
2023-05-05T11:02:27.236Z,6.78
2023-05-05T11:03:29.567Z,5.45
2023-05-05T11:04:31.832Z,6.20
2023-05-05T11:05:33.968Z,6.40
2023-05-05T11:06:36.140Z,6.40
2023-05-05T11:07:38.871Z,7.38
2023-05-05T11:08:44.679Z,6.88
2023-05-05T11:09:58.169Z,6.85
2023-05-05T11:11:01.338Z,6.70
2023-05-05T11:12:04.939Z,7.18
2023-05-05T11:13:07.121Z,6.60
2023-05-05T11:14:22.535Z,6.60
2023-05-05T11:15:27.557Z,6.65
2023-05-05T11:16:45.925Z,5.80
2023-05-05T11:17:48.381Z,6.35
2023-05-05T11:18:50.793Z,5.78
2023-05-05T11:19:53.473Z,5.57
2023-05-05T11:20:58.269Z,5.90
2023-05-05T11:22:01.769Z,5.80
2023-05-05T11:23:04.042Z,6.40
2023-05-05T11:24:28.168Z,5.85
2023-05-05T11:25:40.916Z,5.50
2023-05-05T11:26:51.280Z,5.88
2023-05-05T11:28:13.561Z,5.95
2023-05-05T11:29:15.679Z,5.90
2023-05-05T11:30:18.732Z,5.90
2023-05-05T11:31:20.950Z,6.93
2023-05-05T11:32:23.175Z,6.68
2023-05-05T11:33:38.646Z,6.68
2023-05-05T11:34:50.049Z,7.10
2023-05-05T11:35:55.099Z,6.40
2023-05-05T11:37:07.858Z,6.40
2023-05-05T11:38:10.082Z,6.10
2023-05-05T11:39:36.617Z,7.85
2023-05-05T11:40:41.921Z,6.93
2023-05-05T11:41:57.864Z,7.88
2023-05-05T11:43:07.245Z,5.55
2023-05-05T11:44:16.962Z,6.63
2023-05-05T11:45:23.390Z,6.90
2023-05-05T11:46:25.527Z,6.55
2023-05-05T11:47:28.724Z,6.20
2023-05-05T11:48:30.894Z,6.70
2023-05-05T11:49:34.846Z,6.60
2023-05-05T11:50:37.026Z,6.57
2023-05-05T11:51:39.499Z,6.95
2023-05-05T11:52:41.596Z,6.20
2023-05-05T11:53:48.579Z,6.18
2023-05-05T11:54:51.438Z,6.30
2023-05-05T11:56:10.004Z,6.65
2023-05-05T11:57:12.167Z,6.38
2023-05-05T11:58:18.647Z,6.82
2023-05-05T11:59:21.048Z,6.65
2023-05-05T12:00:32.778Z,6.63
2023-05-05T12:01:35.799Z,6.55
2023-05-05T12:02:38.122Z,6.38
2023-05-05T12:03:41.235Z,6.07
2023-05-05T12:04:43.586Z,6.13
2023-05-05T12:05:48.742Z,6.13
2023-05-05T12:06:50.956Z,5.30
2023-05-05T12:07:57.506Z,5.28
2023-05-05T12:09:00.958Z,6.38
2023-05-05T12:10:03.174Z,5.65
2023-05-05T12:11:07.869Z,5.22
2023-05-05T12:12:10.085Z,5.70
2023-05-05T12:13:18.796Z,6.03
2023-05-05T12:14:21.814Z,6.10
2023-05-05T12:15:31.174Z,6.00
2023-05-05T12:16:33.456Z,5.90
2023-05-05T12:17:39.939Z,5.65
2023-05-05T12:18:42.570Z,5.30
2023-05-05T12:19:46.224Z,5.75
2023-05-05T12:20:48.491Z,6.43
2023-05-05T12:21:50.688Z,6.15
2023-05-05T12:22:59.760Z,7.22
2023-05-05T12:24:01.984Z,6.10
2023-05-05T12:25:06.623Z,6.60
2023-05-05T12:26:31.842Z,6.18
2023-05-05T12:27:35.493Z,6.35
2023-05-05T12:28:46.458Z,6.07
2023-05-05T12:29:48.792Z,5.90
2023-05-05T12:31:00.134Z,5.90
2023-05-05T12:32:02.426Z,5.22
2023-05-05T12:33:06.312Z,5.18
2023-05-05T12:34:10.037Z,5.70
2023-05-05T12:35:13.597Z,5.95
2023-05-05T12:36:16.449Z,6.70
2023-05-05T12:37:19.248Z,5.88
2023-05-05T12:38:21.395Z,13.00
2023-05-05T12:39:23.523Z,6.35
2023-05-05T12:40:45.116Z,7.43
2023-05-05T12:41:47.485Z,5.78
2023-05-05T12:42:49.974Z,5.97
2023-05-05T12:44:03.353Z,6.10
2023-05-05T12:45:06.963Z,5.70
2023-05-05T12:46:11.159Z,6.10
2023-05-05T12:48:22.477Z,5.47
2023-05-05T12:49:24.684Z,5.57
2023-05-05T12:50:31.591Z,6.15
2023-05-05T12:51:37.052Z,5.40
2023-05-05T12:52:43.932Z,5.60
2023-05-05T12:53:47.890Z,6.20
2023-05-05T12:54:58.038Z,6.35
2023-05-05T12:56:00.234Z,5.47
2023-05-05T12:57:11.257Z,6.03
2023-05-05T12:58:13.531Z,5.70
2023-05-05T12:59:21.428Z,5.40
2023-05-05T13:00:24.218Z,5.63
2023-05-05T13:01:26.641Z,5.38
2023-05-05T13:02:35.313Z,6.18
2023-05-05T13:03:37.749Z,5.35
2023-05-05T13:04:53.352Z,5.75
2023-05-05T13:05:55.585Z,5.60
2023-05-05T13:07:13.712Z,6.30
2023-05-05T13:08:15.809Z,6.18
2023-05-05T13:09:24.692Z,5.90
2023-05-05T13:10:28.096Z,5.50
2023-05-05T13:11:30.306Z,6.15
2023-05-05T13:12:32.396Z,6.20
2023-05-05T13:13:34.624Z,6.22
2023-05-05T13:14:36.781Z,6.10
2023-05-05T13:15:38.903Z,6.90
2023-05-05T13:16:41.519Z,6.60
2023-05-05T13:17:43.677Z,5.68
2023-05-05T13:18:46.523Z,5.68
2023-05-05T13:19:48.687Z,5.97
2023-05-05T13:20:51.354Z,5.80
2023-05-05T13:21:57.511Z,6.00
2023-05-05T13:22:59.631Z,6.63
2023-05-05T13:24:18.972Z,6.05
2023-05-05T13:25:23.306Z,6.80
2023-05-05T13:26:25.999Z,6.60
2023-05-05T13:27:28.098Z,6.65
2023-05-05T13:28:30.215Z,6.25
2023-05-05T13:29:33.342Z,6.45
2023-05-05T13:30:35.526Z,7.68
2023-05-05T13:31:37.719Z,5.78
2023-05-05T13:32:39.889Z,5.75
2023-05-05T13:33:42.042Z,5.20
2023-05-05T13:34:44.249Z,5.97
2023-05-05T13:35:46.408Z,5.88
2023-05-05T13:36:48.596Z,7.47
2023-05-05T13:37:50.757Z,6.75
2023-05-05T13:38:53.490Z,6.22
2023-05-05T13:39:59.287Z,6.57
2023-05-05T13:41:01.625Z,6.28
2023-05-05T13:42:03.881Z,5.97
2023-05-05T13:43:06.047Z,5.97
2023-05-05T13:44:08.118Z,11.75
2023-05-05T13:45:10.766Z,6.65
2023-05-05T13:46:20.163Z,5.80
2023-05-05T13:47:22.724Z,7.15
2023-05-05T13:48:24.992Z,6.38
2023-05-05T13:49:27.204Z,5.43
2023-05-05T13:50:29.344Z,4.70
2023-05-05T13:51:31.546Z,8.73
2023-05-05T13:52:33.714Z,5.15
2023-05-05T13:53:36.073Z,8.50
2023-05-05T13:54:38.209Z,5.10
2023-05-05T13:55:41.247Z,4.82
2023-05-05T13:56:43.936Z,5.30
2023-05-05T13:57:46.559Z,4.40
2023-05-05T13:58:48.692Z,4.55
2023-05-05T13:59:50.908Z,4.85
2023-05-05T14:00:53.006Z,5.00
2023-05-05T14:01:55.143Z,5.07
2023-05-05T14:03:00.583Z,4.95
2023-05-05T14:04:05.086Z,4.88
2023-05-05T14:05:08.746Z,5.00
2023-05-05T14:06:10.956Z,4.45
2023-05-05T14:07:13.080Z,4.88
2023-05-05T14:08:15.231Z,4.65
2023-05-05T14:09:17.350Z,5.70
2023-05-05T14:10:19.547Z,5.53
2023-05-05T14:11:21.666Z,4.72
2023-05-05T14:12:23.760Z,5.13
2023-05-05T14:13:25.947Z,5.00
2023-05-05T14:14:28.436Z,4.85
2023-05-05T14:15:30.727Z,5.00
2023-05-05T14:16:32.996Z,5.13
2023-05-05T14:17:35.187Z,5.55
2023-05-05T14:18:37.523Z,5.03
2023-05-05T14:19:39.607Z,5.22
2023-05-05T14:20:41.712Z,5.75
2023-05-05T14:21:43.855Z,5.00
2023-05-05T14:22:47.123Z,5.15
2023-05-05T14:23:50.917Z,5.55
2023-05-05T14:24:53.029Z,5.43
2023-05-05T14:25:55.149Z,4.93
2023-05-05T14:26:57.265Z,5.53
2023-05-05T14:27:59.366Z,5.88
2023-05-05T14:29:01.469Z,5.53
2023-05-05T14:30:03.816Z,4.60
2023-05-05T14:31:06.085Z,4.78
2023-05-05T14:32:08.233Z,4.78
2023-05-05T14:33:10.399Z,4.50
2023-05-05T14:34:12.574Z,4.88